Time;durP1;ratioP1;P1;durP2;ratioP2;P2;SDS_P1;SDS_P2;PMS_P1;PMS_P2;Temp;Humidity;BMP_temperature;BMP_pressure;BME280_temperature;BME280_humidity;BME280_pressure;Samples;Min_cycle;Max_cycle;Signal;HPM_P1;HPM_P2
2023/01/28 00:02:14;;;;;;;;;;;20.00;44.70;;;;;;6104590;29;19931;-55
2023/01/28 00:05:15;;;;;;;;;;;20.40;45.10;;;;;;6104367;29;19958;-57
2023/01/28 00:08:17;;;;;;;;;;;20.20;45.00;;;;;;6104837;29;19974;-55
2023/01/28 00:11:21;;;;;;;;;;;20.40;44.70;;;;;;6104479;29;19935;-55
2023/01/28 00:14:22;;;;;;;;;;;20.20;44.80;;;;;;6104383;29;19927;-56
2023/01/28 00:17:23;;;;;;;;;;;20.00;44.70;;;;;;6104602;29;20414;-56
2023/01/28 00:20:25;;;;;;;;;;;20.10;44.80;;;;;;6104289;29;19927;-56
2023/01/28 00:23:27;;;;;;;;;;;20.60;45.00;;;;;;6104917;29;19927;-56
2023/01/28 00:26:28;;;;;;;;;;;20.20;44.60;;;;;;6104480;29;20360;-55
2023/01/28 00:29:30;;;;;;;;;;;20.50;44.90;;;;;;6104119;29;19927;-55
2023/01/28 00:32:31;;;;;;;;;;;20.50;44.90;;;;;;6103121;29;19927;-55
2023/01/28 00:35:33;;;;;;;;;;;20.30;44.80;;;;;;6104385;29;19927;-56
2023/01/28 00:38:38;;;;;;;;;;;20.10;44.60;;;;;;6104036;29;19934;-54
2023/01/28 00:41:39;;;;;;;;;;;20.80;45.00;;;;;;6103556;29;19927;-55
2023/01/28 00:44:41;;;;;;;;;;;20.20;44.70;;;;;;6104070;29;20411;-53
2023/01/28 00:47:43;;;;;;;;;;;20.20;44.60;;;;;;6103751;29;19927;-55
2023/01/28 00:50:45;;;;;;;;;;;20.10;44.50;;;;;;6103852;29;20454;-56
2023/01/28 00:53:48;;;;;;;;;;;20.20;44.60;;;;;;6104111;29;19989;-54
2023/01/28 00:56:52;;;;;;;;;;;20.20;44.40;;;;;;6103805;29;19927;-55
2023/01/28 00:59:53;;;;;;;;;;;20.30;44.50;;;;;;6103649;29;20399;-54
2023/01/28 01:02:56;;;;;;;;;;;20.20;44.60;;;;;;6103781;29;19927;-55
2023/01/28 01:05:58;;;;;;;;;;;20.40;44.60;;;;;;6103655;29;19953;-55
2023/01/28 01:08:59;;;;;;;;;;;20.40;44.70;;;;;;6103386;29;19935;-54
2023/01/28 01:12:00;;;;;;;;;;;21.20;45.00;;;;;;6104246;29;19927;-54
2023/01/28 01:15:02;;;;;;;;;;;20.10;44.50;;;;;;6103897;29;19982;-55
2023/01/28 01:18:04;;;;;;;;;;;20.60;44.60;;;;;;6103407;29;19927;-54
2023/01/28 01:21:08;;;;;;;;;;;20.10;44.50;;;;;;6103241;29;19927;-55
2023/01/28 01:24:10;;;;;;;;;;;20.10;44.40;;;;;;6102130;29;20410;-55
2023/01/28 01:27:11;;;;;;;;;;;20.40;44.60;;;;;;6103873;29;20013;-54
2023/01/28 01:30:13;;;;;;;;;;;20.20;44.50;;;;;;6103049;29;20380;-54
2023/01/28 01:33:15;;;;;;;;;;;20.60;44.50;;;;;;6103537;29;20434;-54
2023/01/28 01:36:18;;;;;;;;;;;20.30;44.20;;;;;;6103147;29;19927;-55
2023/01/28 01:39:19;;;;;;;;;;;20.30;44.40;;;;;;6101768;29;19927;-55
2023/01/28 01:42:21;;;;;;;;;;;20.70;44.50;;;;;;6103301;29;19998;-54
2023/01/28 01:45:24;;;;;;;;;;;20.30;44.40;;;;;;6107875;29;19927;-56
2023/01/28 01:48:29;;;;;;;;;;;20.30;44.40;;;;;;6107127;29;19928;-54
2023/01/28 01:51:32;;;;;;;;;;;20.60;44.50;;;;;;6106610;29;19935;-54
2023/01/28 01:54:35;;;;;;;;;;;20.20;44.30;;;;;;6107169;29;19931;-55
2023/01/28 01:57:37;;;;;;;;;;;20.30;44.20;;;;;;6106913;29;20380;-54
2023/01/28 02:00:38;;;;;;;;;;;20.30;44.30;;;;;;6107241;29;19934;-54
2023/01/28 02:03:45;;;;;;;;;;;20.40;44.20;;;;;;6107527;29;19927;-53
2023/01/28 02:06:47;;;;;;;;;;;20.30;44.20;;;;;;6107498;29;19981;-55
2023/01/28 02:09:54;;;;;;;;;;;20.50;44.40;;;;;;6107118;29;20287;-55
2023/01/28 02:12:57;;;;;;;;;;;20.80;44.40;;;;;;6106673;29;19927;-54
2023/01/28 02:16:01;;;;;;;;;;;20.60;44.30;;;;;;6106730;29;19962;-55
2023/01/28 02:19:02;;;;;;;;;;;20.40;43.70;;;;;;6134221;23;19979;-44
2023/01/28 02:22:11;;;;;;;;;;;20.60;44.50;;;;;;6112130;29;19934;-45
2023/01/28 02:25:28;;;;;;;;;;;20.60;44.20;;;;;;6112034;29;19927;-43
2023/01/28 02:28:33;;;;;;;;;;;20.40;44.10;;;;;;6111418;29;19927;-44
2023/01/28 02:31:38;;;;;;;;;;;20.30;44.10;;;;;;6111474;29;19927;-43
2023/01/28 02:34:42;;;;;;;;;;;20.40;44.00;;;;;;6111144;29;19974;-44
2023/01/28 02:37:46;;;;;;;;;;;20.40;44.10;;;;;;6111523;29;20343;-43
2023/01/28 02:41:05;;;;;;;;;;;20.40;44.20;;;;;;6111747;29;19927;-44
2023/01/28 02:44:07;;;;;;;;;;;21.20;44.50;;;;;;6112688;29;20363;-45
2023/01/28 02:50:22;;;;;;;;;;;20.50;44.20;;;;;;6111603;29;19931;-44
2023/01/28 02:56:46;;;;;;;;;;;20.30;44.10;;;;;;6111127;29;19927;-44
2023/01/28 02:59:50;;;;;;;;;;;20.50;44.00;;;;;;6113231;29;19927;-43
2023/01/28 03:02:56;;;;;;;;;;;20.30;43.90;;;;;;6111741;29;19927;-43
2023/01/28 03:06:06;;;;;;;;;;;20.50;44.00;;;;;;6112656;29;19927;-45
2023/01/28 03:38:40;;;;;;;;;;;20.70;44.10;;;;;;6114505;29;19927;-44
2023/01/28 03:41:54;;;;;;;;;;;20.20;43.90;;;;;;6114892;29;19927;-45
2023/01/28 03:44:56;;;;;;;;;;;20.30;43.80;;;;;;6113676;29;19927;-44
2023/01/28 03:47:59;;;;;;;;;;;20.90;44.10;;;;;;6113954;29;19927;-42
2023/01/28 03:51:00;;;;;;;;;;;20.50;44.10;;;;;;6114206;29;19927;-43
2023/01/28 03:54:04;;;;;;;;;;;20.40;44.10;;;;;;6115451;29;19996;-43
2023/01/28 03:57:06;;;;;;;;;;;20.60;44.10;;;;;;6114582;29;20355;-44
2023/01/28 04:00:09;;;;;;;;;;;20.50;44.10;;;;;;6114271;29;19927;-43
2023/01/28 04:03:16;;;;;;;;;;;20.50;44.00;;;;;;6114100;29;19928;-43
2023/01/28 04:06:27;;;;;;;;;;;20.30;43.90;;;;;;6113380;29;19927;-45
2023/01/28 04:09:49;;;;;;;;;;;20.70;44.10;;;;;;6112665;29;19927;-44
2023/01/28 04:13:08;;;;;;;;;;;20.50;44.10;;;;;;6112874;29;20394;-43
2023/01/28 04:16:09;;;;;;;;;;;20.70;43.80;;;;;;6113080;29;19935;-44
2023/01/28 04:19:15;;;;;;;;;;;20.90;44.20;;;;;;6112593;29;19927;-43
2023/01/28 04:22:18;;;;;;;;;;;20.60;44.10;;;;;;6111692;29;19927;-44
2023/01/28 04:25:20;;;;;;;;;;;20.40;44.00;;;;;;6112554;29;19983;-44
2023/01/28 04:28:22;;;;;;;;;;;20.90;44.20;;;;;;6113520;29;20021;-43
2023/01/28 04:31:24;;;;;;;;;;;20.70;44.00;;;;;;6113137;29;20038;-43
2023/01/28 04:34:39;;;;;;;;;;;20.30;43.90;;;;;;6113101;29;19982;-42
2023/01/28 04:37:56;;;;;;;;;;;20.40;43.90;;;;;;6112720;29;19934;-42
2023/01/28 04:41:06;;;;;;;;;;;20.90;44.20;;;;;;6112457;29;19950;-44
2023/01/28 04:44:09;;;;;;;;;;;20.30;43.90;;;;;;6112765;29;19927;-42
2023/01/28 04:47:30;;;;;;;;;;;20.60;44.00;;;;;;6111613;29;20371;-44
2023/01/28 04:50:46;;;;;;;;;;;21.10;44.20;;;;;;6112316;29;20022;-46
2023/01/28 04:53:53;;;;;;;;;;;20.70;44.00;;;;;;6112433;29;19986;-43
2023/01/28 04:57:00;;;;;;;;;;;20.40;43.90;;;;;;6111580;29;20021;-44
2023/01/28 05:00:02;;;;;;;;;;;20.90;44.20;;;;;;6112105;29;19933;-42
2023/01/28 05:03:03;;;;;;;;;;;20.30;43.70;;;;;;6112413;29;19950;-44
2023/01/28 05:06:05;;;;;;;;;;;20.40;43.90;;;;;;6112156;29;20025;-43
2023/01/28 05:09:16;;;;;;;;;;;20.30;43.90;;;;;;6112867;29;19927;-43
2023/01/28 05:12:19;;;;;;;;;;;20.60;43.90;;;;;;6112425;29;19928;-46
2023/01/28 05:15:21;;;;;;;;;;;20.40;43.90;;;;;;6112146;29;19933;-44
2023/01/28 05:18:24;;;;;;;;;;;20.80;44.00;;;;;;6109853;29;19991;-44
2023/01/28 05:21:44;;;;;;;;;;;20.90;43.70;;;;;;6112020;29;19934;-43
2023/01/28 05:24:56;;;;;;;;;;;20.60;43.90;;;;;;6112288;29;19950;-44
2023/01/28 05:27:58;;;;;;;;;;;20.80;44.10;;;;;;6112094;29;20291;-45
2023/01/28 05:31:01;;;;;;;;;;;20.30;43.80;;;;;;6112280;29;19950;-44
2023/01/28 05:34:03;;;;;;;;;;;20.40;43.60;;;;;;6111993;29;19927;-43
2023/01/28 05:37:06;;;;;;;;;;;20.40;43.80;;;;;;6111975;29;19927;-44
2023/01/28 05:40:11;;;;;;;;;;;20.40;43.80;;;;;;6112123;29;19934;-43
2023/01/28 05:43:13;;;;;;;;;;;20.40;43.70;;;;;;6112174;29;19927;-43
2023/01/28 05:46:20;;;;;;;;;;;20.20;43.60;;;;;;6112749;29;19928;-43
2023/01/28 05:49:36;;;;;;;;;;;20.80;43.90;;;;;;6112741;29;19978;-45
2023/01/28 05:52:52;;;;;;;;;;;20.90;44.00;;;;;;6112629;29;19927;-43
2023/01/28 05:55:58;;;;;;;;;;;20.40;44.40;;;;;;6111909;29;19958;-44
2023/01/28 05:59:00;;;;;;;;;;;20.30;43.60;;;;;;6111707;29;19927;-42
2023/01/28 06:02:02;;;;;;;;;;;20.40;43.60;;;;;;6112108;29;19927;-43
2023/01/28 06:05:03;;;;;;;;;;;20.20;43.70;;;;;;6112287;29;19927;-44
2023/01/28 06:08:06;;;;;;;;;;;20.60;43.60;;;;;;6111665;29;19931;-43
2023/01/28 06:11:07;;;;;;;;;;;20.20;43.60;;;;;;6111639;29;19927;-46
2023/01/28 06:14:09;;;;;;;;;;;20.70;44.00;;;;;;6111604;29;19933;-43
2023/01/28 06:17:24;;;;;;;;;;;21.30;44.10;;;;;;6111261;29;19935;-44
2023/01/28 06:20:36;;;;;;;;;;;20.50;43.70;;;;;;6112085;29;20391;-44
2023/01/28 06:23:38;;;;;;;;;;;20.40;43.70;;;;;;6112155;29;20375;-43
2023/01/28 06:26:42;;;;;;;;;;;20.70;43.90;;;;;;6111916;29;19931;-44
2023/01/28 06:29:45;;;;;;;;;;;21.00;44.00;;;;;;6113627;29;19974;-44
2023/01/28 06:32:46;;;;;;;;;;;20.20;43.60;;;;;;6116816;29;20339;-46
2023/01/28 06:35:48;;;;;;;;;;;20.40;43.80;;;;;;6116046;29;19927;-47
2023/01/28 06:38:49;;;;;;;;;;;20.40;43.80;;;;;;6115347;29;20386;-44
2023/01/28 06:41:52;;;;;;;;;;;20.30;43.60;;;;;;6115102;29;20005;-48
2023/01/28 06:44:53;;;;;;;;;;;20.40;43.70;;;;;;6115042;29;19931;-45
2023/01/28 06:47:54;;;;;;;;;;;21.20;44.00;;;;;;6115899;29;19927;-44
2023/01/28 06:50:56;;;;;;;;;;;20.30;43.10;;;;;;6115811;29;19950;-45
2023/01/28 06:53:57;;;;;;;;;;;20.30;43.70;;;;;;6115352;29;20291;-45
2023/01/28 06:56:59;;;;;;;;;;;20.30;43.50;;;;;;6114741;29;19927;-44
2023/01/28 07:00:00;;;;;;;;;;;20.30;43.60;;;;;;6114978;29;19930;-45
2023/01/28 07:03:01;;;;;;;;;;;20.40;43.70;;;;;;6116319;29;20017;-47
2023/01/28 07:06:03;;;;;;;;;;;20.50;43.60;;;;;;6110731;29;19927;-52
2023/01/28 07:09:05;;;;;;;;;;;20.40;43.60;;;;;;6108860;29;20299;-51
2023/01/28 07:12:06;;;;;;;;;;;20.50;43.10;;;;;;6107402;29;20359;-49
2023/01/28 07:15:09;;;;;;;;;;;19.90;43.30;;;;;;6107764;29;19934;-52
2023/01/28 07:18:11;;;;;;;;;;;20.20;43.40;;;;;;6107324;29;19927;-51
2023/01/28 07:21:12;;;;;;;;;;;20.40;43.70;;;;;;6107046;29;19927;-51
2023/01/28 07:24:14;;;;;;;;;;;21.30;44.10;;;;;;6107740;29;20280;-49
2023/01/28 07:27:15;;;;;;;;;;;20.30;43.50;;;;;;6107229;29;19934;-49
2023/01/28 07:30:17;;;;;;;;;;;20.30;43.60;;;;;;6106972;29;19982;-48
2023/01/28 07:33:19;;;;;;;;;;;20.20;43.40;;;;;;6106969;29;20395;-51
2023/01/28 07:36:20;;;;;;;;;;;20.20;43.50;;;;;;6106630;29;19962;-47
2023/01/28 07:39:22;;;;;;;;;;;20.40;43.60;;;;;;6107072;29;20357;-50
2023/01/28 07:42:23;;;;;;;;;;;20.70;43.10;;;;;;6105721;29;19927;-49
2023/01/28 07:45:29;;;;;;;;;;;20.30;43.50;;;;;;6106473;29;19931;-51
2023/01/28 07:48:30;;;;;;;;;;;20.30;43.30;;;;;;6106194;29;20382;-51
2023/01/28 07:51:31;;;;;;;;;;;20.70;43.80;;;;;;6105969;29;19927;-48
2023/01/28 07:54:33;;;;;;;;;;;20.20;43.50;;;;;;6106251;29;19946;-48
2023/01/28 07:57:35;;;;;;;;;;;20.40;43.60;;;;;;6106265;29;19935;-49
2023/01/28 08:00:37;;;;;;;;;;;20.70;43.30;;;;;;6106408;29;20383;-48
2023/01/28 08:03:38;;;;;;;;;;;20.20;43.40;;;;;;6104754;29;19958;-48
2023/01/28 08:06:39;;;;;;;;;;;20.60;43.60;;;;;;6106011;29;19931;-51
2023/01/28 08:09:41;;;;;;;;;;;20.30;43.50;;;;;;6105368;29;19934;-49
2023/01/28 08:12:49;;;;;;;;;;;20.70;43.70;;;;;;6105967;29;19934;-49
2023/01/28 08:15:54;;;;;;;;;;;20.40;43.40;;;;;;6105896;29;20306;-50
2023/01/28 08:18:56;;;;;;;;;;;20.30;43.20;;;;;;6104702;29;20006;-51
2023/01/28 08:21:57;;;;;;;;;;;20.70;43.50;;;;;;6104493;29;19927;-53
2023/01/28 08:24:59;;;;;;;;;;;21.30;44.10;;;;;;6106019;29;19927;-50
2023/01/28 08:28:00;;;;;;;;;;;20.40;43.30;;;;;;6105633;29;19931;-51
2023/01/28 08:31:02;;;;;;;;;;;20.30;43.40;;;;;;6106001;29;19927;-52
2023/01/28 08:34:03;;;;;;;;;;;20.40;43.40;;;;;;6105789;29;19938;-48
2023/01/28 08:37:05;;;;;;;;;;;20.70;43.40;;;;;;6105816;29;19945;-52
2023/01/28 08:40:08;;;;;;;;;;;20.60;43.50;;;;;;6105409;29;19927;-49
2023/01/28 08:43:09;;;;;;;;;;;20.60;43.40;;;;;;6104268;29;19928;-49
2023/01/28 08:46:10;;;;;;;;;;;20.40;43.40;;;;;;6105292;29;19927;-51
2023/01/28 08:49:12;;;;;;;;;;;20.90;43.40;;;;;;6105923;29;19982;-47
2023/01/28 08:52:13;;;;;;;;;;;20.40;42.80;;;;;;6104582;29;19931;-50
2023/01/28 08:55:15;;;;;;;;;;;20.90;43.60;;;;;;6105389;29;20336;-49
2023/01/28 08:58:17;;;;;;;;;;;20.30;43.30;;;;;;6105253;29;19927;-51
2023/01/28 09:01:18;;;;;;;;;;;20.30;43.20;;;;;;6104810;29;19927;-51
2023/01/28 09:04:19;;;;;;;;;;;20.40;43.30;;;;;;6105561;29;20339;-50
2023/01/28 09:07:21;;;;;;;;;;;20.90;43.60;;;;;;6105175;29;19927;-51
2023/01/28 09:10:23;;;;;;;;;;;20.50;42.70;;;;;;6105291;29;19927;-47
2023/01/28 09:13:27;;;;;;;;;;;20.30;43.20;;;;;;6104313;29;21409;-46
2023/01/28 09:16:28;;;;;;;;;;;20.20;43.00;;;;;;6103114;29;19927;-47
2023/01/28 09:19:30;;;;;;;;;;;21.00;43.50;;;;;;6104052;29;19927;-47
2023/01/28 09:22:31;;;;;;;;;;;20.70;43.20;;;;;;6104325;29;20395;-50
2023/01/28 09:25:35;;;;;;;;;;;20.30;43.00;;;;;;6104336;29;20336;-50
2023/01/28 09:28:37;;;;;;;;;;;20.40;43.20;;;;;;6104667;29;19927;-52
2023/01/28 09:31:39;;;;;;;;;;;21.10;43.40;;;;;;6104373;29;19927;-48
2023/01/28 09:34:40;;;;;;;;;;;20.80;43.20;;;;;;6103176;29;19931;-51
2023/01/28 09:37:41;;;;;;;;;;;21.30;43.60;;;;;;6103874;29;20328;-52
2023/01/28 09:40:44;;;;;;;;;;;20.40;43.20;;;;;;6103497;29;20061;-48
2023/01/28 09:43:53;;;;;;;;;;;21.40;43.50;;;;;;6104296;29;20398;-51
2023/01/28 09:46:59;;;;;;;;;;;20.80;43.10;;;;;;6103686;29;19927;-49
2023/01/28 09:50:03;;;;;;;;;;;20.80;43.10;;;;;;6104019;29;20379;-50
2023/01/28 09:53:06;;;;;;;;;;;20.40;43.00;;;;;;6103736;29;19927;-51
2023/01/28 09:56:11;;;;;;;;;;;21.10;43.30;;;;;;6103828;29;19978;-51
2023/01/28 09:59:16;;;;;;;;;;;20.40;42.80;;;;;;6102432;29;19935;-48
2023/01/28 10:02:24;;;;;;;;;;;20.80;43.10;;;;;;6102313;29;19927;-50
2023/01/28 10:05:29;;;;;;;;;;;20.50;42.80;;;;;;6106727;29;19927;-52
2023/01/28 10:08:38;;;;;;;;;;;20.80;42.80;;;;;;6107876;29;19927;-50
2023/01/28 10:11:52;;;;;;;;;;;20.70;42.40;;;;;;6107625;29;20299;-49
2023/01/28 10:14:57;;;;;;;;;;;20.50;42.90;;;;;;6107451;29;20021;-50
2023/01/28 10:18:01;;;;;;;;;;;20.50;42.90;;;;;;6106117;29;19934;-52
2023/01/28 10:21:20;;;;;;;;;;;21.00;43.00;;;;;;6107769;29;19927;-52
2023/01/28 10:24:25;;;;;;;;;;;20.60;42.80;;;;;;6107522;29;19927;-50
2023/01/28 10:27:29;;;;;;;;;;;21.10;43.10;;;;;;6106187;29;20292;-50
2023/01/28 10:30:31;;;;;;;;;;;20.40;42.90;;;;;;6106042;29;19972;-48
2023/01/28 10:33:35;;;;;;;;;;;20.90;42.90;;;;;;6107146;29;20273;-50
2023/01/28 10:36:36;;;;;;;;;;;20.60;42.80;;;;;;6105986;29;19927;-50
2023/01/28 10:39:38;;;;;;;;;;;21.00;43.20;;;;;;6107344;29;20283;-46
2023/01/28 10:42:39;;;;;;;;;;;20.30;42.40;;;;;;6106951;29;20327;-48
2023/01/28 10:45:43;;;;;;;;;;;20.80;42.90;;;;;;6107068;29;19939;-48
2023/01/28 10:48:46;;;;;;;;;;;20.60;42.90;;;;;;6107535;29;19950;-50
2023/01/28 10:51:48;;;;;;;;;;;21.10;43.00;;;;;;6106858;29;19934;-48
2023/01/28 10:54:58;;;;;;;;;;;20.70;42.90;;;;;;6106788;29;19997;-48
2023/01/28 10:58:01;;;;;;;;;;;21.00;43.20;;;;;;6106573;29;20384;-47
2023/01/28 11:01:04;;;;;;;;;;;21.00;43.20;;;;;;6106927;29;20331;-52
2023/01/28 11:04:14;;;;;;;;;;;21.10;42.80;;;;;;6105501;29;19927;-51
2023/01/28 11:07:16;;;;;;;;;;;20.60;42.80;;;;;;6105241;29;19927;-48
2023/01/28 11:10:23;;;;;;;;;;;21.50;43.20;;;;;;6106733;29;19928;-49
2023/01/28 11:13:26;;;;;;;;;;;20.70;42.70;;;;;;6107127;29;19935;-51
2023/01/28 11:16:27;;;;;;;;;;;21.00;43.00;;;;;;6105736;29;20018;-50
2023/01/28 11:19:33;;;;;;;;;;;20.50;42.70;;;;;;6106504;29;19964;-51
2023/01/28 11:22:35;;;;;;;;;;;21.50;43.10;;;;;;6106477;29;19935;-51
2023/01/28 11:25:37;;;;;;;;;;;20.60;42.80;;;;;;6106288;29;20391;-50
2023/01/28 11:28:39;;;;;;;;;;;20.60;42.80;;;;;;6106477;29;20288;-52
2023/01/28 11:31:42;;;;;;;;;;;21.00;42.90;;;;;;6106238;29;20300;-49
2023/01/28 11:34:48;;;;;;;;;;;21.20;43.00;;;;;;6105943;29;19978;-49
2023/01/28 11:37:49;;;;;;;;;;;20.70;42.70;;;;;;6106292;29;19934;-48
2023/01/28 11:40:51;;;;;;;;;;;20.60;42.90;;;;;;6106117;29;19927;-49
2023/01/28 11:43:54;;;;;;;;;;;20.60;43.20;;;;;;6105918;29;20405;-50
2023/01/28 11:47:10;;;;;;;;;;;21.60;43.90;;;;;;6106083;29;20298;-51
2023/01/28 11:50:21;;;;;;;;;;;20.90;42.80;;;;;;6104646;29;19927;-52
2023/01/28 11:53:39;;;;;;;;;;;20.60;42.70;;;;;;6105812;29;19935;-48
2023/01/28 11:56:45;;;;;;;;;;;21.00;42.80;;;;;;6105797;29;19927;-48
2023/01/28 11:59:55;;;;;;;;;;;21.10;42.80;;;;;;6105993;29;20447;-51
2023/01/28 12:03:02;;;;;;;;;;;21.00;42.80;;;;;;6104530;29;20387;-52
2023/01/28 12:06:12;;;;;;;;;;;20.70;42.60;;;;;;6105865;29;19934;-48
2023/01/28 12:09:17;;;;;;;;;;;20.90;42.80;;;;;;6106240;29;19931;-47
2023/01/28 12:12:28;;;;;;;;;;;21.10;42.90;;;;;;6105797;29;20343;-52
2023/01/28 12:15:41;;;;;;;;;;;20.70;42.70;;;;;;6105550;29;20393;-49
2023/01/28 12:18:52;;;;;;;;;;;20.80;42.80;;;;;;6105234;29;19927;-51
2023/01/28 12:22:06;;;;;;;;;;;21.00;42.80;;;;;;6105516;29;19938;-47
2023/01/28 12:25:14;;;;;;;;;;;21.70;43.10;;;;;;6105525;29;19927;-51
2023/01/28 12:28:19;;;;;;;;;;;20.90;42.80;;;;;;6104595;29;19927;-49
2023/01/28 12:31:32;;;;;;;;;;;20.90;42.70;;;;;;6105611;29;19928;-51
2023/01/28 12:34:41;;;;;;;;;;;20.60;42.60;;;;;;6105547;29;19927;-49
2023/01/28 12:37:46;;;;;;;;;;;21.50;43.00;;;;;;6104914;29;20379;-51
2023/01/28 12:40:53;;;;;;;;;;;21.00;42.70;;;;;;6105122;29;19998;-49
2023/01/28 12:43:57;;;;;;;;;;;20.60;42.50;;;;;;6105256;29;19934;-49
2023/01/28 12:47:00;;;;;;;;;;;21.10;42.90;;;;;;6105455;29;20012;-47
2023/01/28 12:50:11;;;;;;;;;;;21.60;43.30;;;;;;6105152;29;20368;-49
2023/01/28 12:53:21;;;;;;;;;;;21.00;42.80;;;;;;6103524;29;19927;-47
2023/01/28 12:56:24;;;;;;;;;;;21.50;43.00;;;;;;6105068;29;19927;-50
2023/01/28 12:59:28;;;;;;;;;;;21.00;42.80;;;;;;6104309;29;19927;-48
2023/01/28 13:02:31;;;;;;;;;;;20.70;42.70;;;;;;6103739;29;20420;-47
2023/01/28 13:05:36;;;;;;;;;;;20.80;42.70;;;;;;6103515;29;19967;-50
2023/01/28 13:08:37;;;;;;;;;;;21.30;43.10;;;;;;6104871;29;20379;-47
2023/01/28 13:11:39;;;;;;;;;;;20.90;42.80;;;;;;6104524;29;19978;-49
2023/01/28 13:14:41;;;;;;;;;;;20.80;42.80;;;;;;6104704;29;19973;-50
2023/01/28 13:17:53;;;;;;;;;;;20.80;42.80;;;;;;6104511;29;19927;-51
2023/01/28 13:20:55;;;;;;;;;;;21.30;42.90;;;;;;6104286;29;19935;-48
2023/01/28 13:24:17;;;;;;;;;;;21.10;43.10;;;;;;6104565;29;20299;-50
2023/01/28 13:27:22;;;;;;;;;;;21.20;42.90;;;;;;6103190;29;20287;-48
2023/01/28 13:30:26;;;;;;;;;;;20.70;42.70;;;;;;6103118;29;19931;-48
2023/01/28 13:33:29;;;;;;;;;;;21.80;43.30;;;;;;6102974;29;20014;-49
2023/01/28 13:36:33;;;;;;;;;;;20.70;42.80;;;;;;6104331;29;19927;-51
2023/01/28 13:39:35;;;;;;;;;;;21.50;43.40;;;;;;6106348;29;19966;-50
2023/01/28 13:42:36;;;;;;;;;;;20.80;42.90;;;;;;6108501;29;19928;-50
2023/01/28 13:45:38;;;;;;;;;;;21.60;43.40;;;;;;6108281;29;19986;-51
2023/01/28 13:48:41;;;;;;;;;;;20.90;42.80;;;;;;6108627;29;20367;-49
2023/01/28 13:51:50;;;;;;;;;;;21.30;43.00;;;;;;6108276;29;19927;-47
2023/01/28 13:54:54;;;;;;;;;;;21.10;42.80;;;;;;6108263;29;19970;-49
2023/01/28 13:58:11;;;;;;;;;;;21.10;42.90;;;;;;6108385;29;19935;-51
2023/01/28 14:01:28;;;;;;;;;;;20.80;42.80;;;;;;6106715;29;19927;-49
2023/01/28 14:04:40;;;;;;;;;;;21.70;43.20;;;;;;6107137;29;19990;-49
2023/01/28 14:07:51;;;;;;;;;;;20.80;42.70;;;;;;6108277;29;19927;-48
2023/01/28 14:10:59;;;;;;;;;;;21.60;43.20;;;;;;6107805;29;20379;-51
2023/01/28 14:14:18;;;;;;;;;;;20.80;42.70;;;;;;6107685;29;19927;-50
2023/01/28 14:17:26;;;;;;;;;;;21.30;42.30;;;;;;6107474;29;20022;-51
2023/01/28 14:20:31;;;;;;;;;;;21.00;42.90;;;;;;6108026;29;20324;-48
2023/01/28 14:23:35;;;;;;;;;;;21.70;43.40;;;;;;6108094;29;19927;-50
2023/01/28 14:26:41;;;;;;;;;;;20.90;43.00;;;;;;6107774;29;20376;-51
2023/01/28 14:29:46;;;;;;;;;;;21.20;42.80;;;;;;6107643;29;19959;-47
2023/01/28 14:32:48;;;;;;;;;;;20.90;42.80;;;;;;6107577;29;19971;-51
2023/01/28 14:35:50;;;;;;;;;;;21.40;43.10;;;;;;6106494;29;19927;-51
2023/01/28 14:38:55;;;;;;;;;;;20.70;42.70;;;;;;6107487;29;19934;-48
2023/01/28 14:41:58;;;;;;;;;;;21.70;43.50;;;;;;6107438;29;19986;-47
2023/01/28 14:45:07;;;;;;;;;;;21.10;43.00;;;;;;6107745;29;19966;-50
2023/01/28 14:48:15;;;;;;;;;;;21.40;43.10;;;;;;6107326;29;19927;-52
2023/01/28 14:51:24;;;;;;;;;;;20.70;42.80;;;;;;6105902;29;19962;-50
2023/01/28 14:54:29;;;;;;;;;;;21.40;43.10;;;;;;6107284;29;19991;-51
2023/01/28 14:57:43;;;;;;;;;;;21.10;42.90;;;;;;6106913;29;19983;-49
2023/01/28 15:00:52;;;;;;;;;;;21.50;43.10;;;;;;6107010;29;19927;-52
2023/01/28 15:03:53;;;;;;;;;;;20.90;42.80;;;;;;6105625;29;19927;-49
2023/01/28 15:06:55;;;;;;;;;;;21.00;43.00;;;;;;6105814;29;20379;-50
2023/01/28 15:10:00;;;;;;;;;;;20.60;42.70;;;;;;6105559;29;19979;-51
2023/01/28 15:13:04;;;;;;;;;;;21.30;43.10;;;;;;6107088;29;19927;-48
2023/01/28 15:16:07;;;;;;;;;;;20.90;42.90;;;;;;6105910;29;19935;-50
2023/01/28 15:19:08;;;;;;;;;;;21.30;43.10;;;;;;6107060;29;20297;-49
2023/01/28 15:22:14;;;;;;;;;;;20.90;42.80;;;;;;6106735;29;19927;-50
2023/01/28 15:25:17;;;;;;;;;;;21.50;43.10;;;;;;6106523;29;19934;-51
2023/01/28 15:28:22;;;;;;;;;;;21.10;43.00;;;;;;6105370;29;19927;-51
2023/01/28 15:31:24;;;;;;;;;;;21.70;43.40;;;;;;6106719;29;20276;-51
2023/01/28 15:34:29;;;;;;;;;;;20.80;42.80;;;;;;6105173;29;20387;-48
2023/01/28 15:37:30;;;;;;;;;;;21.60;43.30;;;;;;6106020;29;19927;-50
2023/01/28 15:40:39;;;;;;;;;;;20.80;42.90;;;;;;6107278;29;19927;-50
2023/01/28 15:43:45;;;;;;;;;;;21.20;42.90;;;;;;6106287;29;19962;-50
2023/01/28 15:46:47;;;;;;;;;;;20.90;42.90;;;;;;6106122;29;19927;-47
2023/01/28 15:49:50;;;;;;;;;;;21.70;43.50;;;;;;6106386;29;19975;-51
2023/01/28 15:52:51;;;;;;;;;;;20.80;42.90;;;;;;6106190;29;20000;-48
2023/01/28 15:56:02;;;;;;;;;;;21.70;43.50;;;;;;6105964;29;19934;-49
2023/01/28 15:59:15;;;;;;;;;;;21.20;42.80;;;;;;6104849;29;19931;-50
2023/01/28 16:02:16;;;;;;;;;;;21.30;40.20;;;;;;6104285;29;19927;-48
2023/01/28 16:05:23;;;;;;;;;;;21.20;43.00;;;;;;6104507;29;19934;-49
2023/01/28 16:08:27;;;;;;;;;;;21.60;43.20;;;;;;6105930;29;20018;-48
2023/01/28 16:11:30;;;;;;;;;;;20.70;42.80;;;;;;6105767;29;19928;-50
2023/01/28 16:14:37;;;;;;;;;;;21.20;42.60;;;;;;6105473;29;19927;-46
2023/01/28 16:17:40;;;;;;;;;;;20.90;42.80;;;;;;6105778;29;19931;-52
2023/01/28 16:20:47;;;;;;;;;;;21.10;42.80;;;;;;6105642;29;19927;-49
2023/01/28 16:23:49;;;;;;;;;;;20.80;42.80;;;;;;6105699;29;19979;-49
2023/01/28 16:26:59;;;;;;;;;;;21.70;43.40;;;;;;6104301;29;19931;-48
2023/01/28 16:30:00;;;;;;;;;;;20.80;42.80;;;;;;6105609;29;19927;-49
2023/01/28 16:33:02;;;;;;;;;;;21.60;43.40;;;;;;6105827;29;19927;-51
2023/01/28 16:36:03;;;;;;;;;;;20.60;42.80;;;;;;6104968;29;19927;-51
2023/01/28 16:39:09;;;;;;;;;;;21.60;43.50;;;;;;6105349;29;19931;-51
2023/01/28 16:42:11;;;;;;;;;;;20.70;42.80;;;;;;6105615;29;20022;-50
2023/01/28 16:45:15;;;;;;;;;;;21.50;43.40;;;;;;6104949;29;20320;-51
2023/01/28 16:48:17;;;;;;;;;;;20.60;42.80;;;;;;6103956;29;19934;-48
2023/01/28 16:51:19;;;;;;;;;;;21.30;43.40;;;;;;6105216;29;19966;-52
2023/01/28 16:54:21;;;;;;;;;;;20.70;42.80;;;;;;6104724;29;20296;-50
2023/01/28 16:57:22;;;;;;;;;;;21.40;43.40;;;;;;6104914;29;19927;-51
2023/01/28 17:00:25;;;;;;;;;;;20.80;43.10;;;;;;6105075;29;20007;-47
2023/01/28 17:03:27;;;;;;;;;;;21.40;43.20;;;;;;6103570;29;19927;-52
2023/01/28 17:06:28;;;;;;;;;;;20.80;42.80;;;;;;6104886;29;19927;-50
2023/01/28 17:09:29;;;;;;;;;;;21.10;43.30;;;;;;6104886;29;19927;-50
2023/01/28 17:12:31;;;;;;;;;;;20.50;42.80;;;;;;6104542;29;19931;-47
2023/01/28 17:15:33;;;;;;;;;;;21.30;43.30;;;;;;6103880;29;19927;-49
2023/01/28 17:18:34;;;;;;;;;;;21.10;43.10;;;;;;6104586;29;19966;-51
2023/01/28 17:21:36;;;;;;;;;;;21.40;43.30;;;;;;6104471;29;19950;-48
2023/01/28 17:24:37;;;;;;;;;;;21.00;43.10;;;;;;6104627;29;19927;-50
2023/01/28 17:27:39;;;;;;;;;;;21.00;43.30;;;;;;6104441;29;19927;-49
2023/01/28 17:30:41;;;;;;;;;;;20.60;43.00;;;;;;6104369;29;19927;-50
2023/01/28 17:33:43;;;;;;;;;;;21.10;43.10;;;;;;6103259;29;20074;-52
2023/01/28 17:36:45;;;;;;;;;;;20.90;43.10;;;;;;6104230;29;19931;-50
2023/01/28 17:39:46;;;;;;;;;;;21.20;43.30;;;;;;6104056;29;19927;-49
2023/01/28 17:42:48;;;;;;;;;;;20.60;42.90;;;;;;6104299;29;19927;-49
2023/01/28 17:45:49;;;;;;;;;;;21.50;43.50;;;;;;6103974;29;19928;-52
2023/01/28 17:48:51;;;;;;;;;;;20.50;43.00;;;;;;6104090;29;19927;-48
2023/01/28 17:51:52;;;;;;;;;;;20.90;43.00;;;;;;6104368;29;19950;-46
2023/01/28 17:54:54;;;;;;;;;;;20.60;43.00;;;;;;6103851;29;19958;-46
2023/01/28 17:57:55;;;;;;;;;;;21.00;43.20;;;;;;6103740;29;19927;-50
2023/01/28 18:00:57;;;;;;;;;;;20.60;43.00;;;;;;6104116;29;19928;-47
2023/01/28 18:03:59;;;;;;;;;;;21.10;43.30;;;;;;6103710;29;19935;-50
2023/01/28 18:07:00;;;;;;;;;;;20.60;42.90;;;;;;6103510;29;19927;-50
2023/01/28 18:10:02;;;;;;;;;;;21.50;43.50;;;;;;6103826;29;19931;-47
2023/01/28 18:13:04;;;;;;;;;;;20.80;43.10;;;;;;6103677;29;19957;-49
2023/01/28 18:16:06;;;;;;;;;;;21.10;43.20;;;;;;6103560;29;19970;-46
2023/01/28 18:19:09;;;;;;;;;;;20.50;42.80;;;;;;6103690;29;19927;-48
2023/01/28 18:22:10;;;;;;;;;;;21.00;43.30;;;;;;6103813;29;20421;-47
2023/01/28 18:25:13;;;;;;;;;;;20.60;43.10;;;;;;6104596;29;19927;-48
2023/01/28 18:28:15;;;;;;;;;;;20.50;42.80;;;;;;6107701;29;20276;-52